createdAt,value
2022-11-10T00:00:28.872Z,3.45
2022-11-10T00:02:55.277Z,3.58
2022-11-10T00:05:21.677Z,3.72
2022-11-10T00:07:48.041Z,3.13
2022-11-10T00:10:15.461Z,3.60
2022-11-10T00:12:41.869Z,3.17
2022-11-10T00:15:28.363Z,3.63
2022-11-10T00:17:55.029Z,3.42
2022-11-10T00:20:21.476Z,3.05
2022-11-10T00:22:47.896Z,3.40
2022-11-10T00:25:14.246Z,3.58
2022-11-10T00:27:40.716Z,3.35
2022-11-10T00:30:07.513Z,3.33
2022-11-10T00:32:34.046Z,3.22
2022-11-10T00:35:00.454Z,3.95
2022-11-10T00:37:26.833Z,3.58
2022-11-10T00:39:53.238Z,3.53
2022-11-10T00:42:19.637Z,2.83
2022-11-10T00:44:46.658Z,3.28
2022-11-10T00:47:13.356Z,3.22
2022-11-10T00:49:39.715Z,3.80
2022-11-10T00:52:06.084Z,3.47
2022-11-10T00:54:32.451Z,3.53
2022-11-10T00:56:58.865Z,3.72
2022-11-10T00:59:25.218Z,3.80
2022-11-10T01:01:51.670Z,3.50
2022-11-10T01:04:18.075Z,3.53
2022-11-10T01:06:44.497Z,3.80
2022-11-10T01:09:10.885Z,3.97
2022-11-10T01:11:37.269Z,3.65
2022-11-10T01:14:05.602Z,3.60
2022-11-10T01:16:32.368Z,3.63
2022-11-10T01:19:00.935Z,3.30
2022-11-10T01:21:28.351Z,4.10
2022-11-10T01:23:55.157Z,3.33
2022-11-10T01:26:22.285Z,3.70
2022-11-10T01:28:55.901Z,3.50
2022-11-10T01:31:23.032Z,3.25
2022-11-10T01:33:49.619Z,3.83
2022-11-10T01:36:16.461Z,3.00
2022-11-10T01:38:43.291Z,3.92
2022-11-10T01:41:12.669Z,3.63
2022-11-10T01:43:39.145Z,3.17
2022-11-10T01:46:07.836Z,3.45
2022-11-10T01:49:01.768Z,3.42
2022-11-10T01:51:35.585Z,3.13
2022-11-10T01:54:06.789Z,3.70
2022-11-10T01:56:37.360Z,2.95
2022-11-10T01:59:06.242Z,2.85
2022-11-10T02:01:32.638Z,3.15
2022-11-10T02:04:01.689Z,2.90
2022-11-10T02:06:30.691Z,2.95
2022-11-10T02:08:59.300Z,2.90
2022-11-10T02:11:26.613Z,2.53
2022-11-10T02:13:53.576Z,2.97
2022-11-10T02:16:20.736Z,2.70
2022-11-10T02:18:47.931Z,2.53
2022-11-10T02:21:16.843Z,3.03
2022-11-10T02:23:46.344Z,2.95
2022-11-10T02:26:14.023Z,3.15
2022-11-10T02:28:40.408Z,3.55
2022-11-10T02:31:09.201Z,3.53
2022-11-10T02:33:36.368Z,4.03
2022-11-10T02:36:03.086Z,2.95
2022-11-10T02:38:29.408Z,2.70
2022-11-10T02:40:55.755Z,3.30
2022-11-10T02:43:22.426Z,3.30
2022-11-10T02:45:48.845Z,3.17
2022-11-10T02:48:16.073Z,3.30
2022-11-10T02:50:42.557Z,3.25
2022-11-10T02:53:08.983Z,3.20
2022-11-10T02:55:35.390Z,3.40
2022-11-10T02:58:01.712Z,4.03
2022-11-10T03:00:28.097Z,3.83
2022-11-10T03:02:58.752Z,3.38
2022-11-10T03:05:25.110Z,3.85
2022-11-10T03:07:55.997Z,4.28
2022-11-10T03:10:23.053Z,3.85
2022-11-10T03:12:49.450Z,3.88
2022-11-10T03:15:16.529Z,4.70
2022-11-10T03:17:43.066Z,3.72
2022-11-10T03:20:09.821Z,3.47
2022-11-10T03:22:36.874Z,4.05
2022-11-10T03:25:04.029Z,4.10
2022-11-10T03:27:30.339Z,3.53
2022-11-10T03:29:57.164Z,3.85
2022-11-10T03:32:23.618Z,3.22
2022-11-10T03:34:49.982Z,3.35
2022-11-10T03:37:16.316Z,3.42
2022-11-10T03:39:42.649Z,3.35
2022-11-10T03:42:08.983Z,3.30
2022-11-10T03:44:35.294Z,3.20
2022-11-10T03:47:03.790Z,3.25
2022-11-10T03:49:30.998Z,2.88
2022-11-10T03:51:57.692Z,3.40
2022-11-10T03:54:24.068Z,3.22
2022-11-10T03:56:50.413Z,2.25
2022-11-10T03:59:16.744Z,2.88
2022-11-10T04:01:44.618Z,2.47
2022-11-10T04:04:30.977Z,2.53
2022-11-10T04:07:16.252Z,2.58
2022-11-10T04:09:42.673Z,2.50
2022-11-10T04:12:27.462Z,3.13
2022-11-10T04:15:12.178Z,2.58
2022-11-10T04:17:38.493Z,2.65
2022-11-10T04:20:05.297Z,2.20
2022-11-10T04:22:50.085Z,2.80
2022-11-10T04:25:16.421Z,2.78
2022-11-10T04:27:42.751Z,2.65
2022-11-10T04:30:09.516Z,2.90
2022-11-10T04:32:35.833Z,2.92
2022-11-10T04:35:02.183Z,2.40
2022-11-10T04:37:28.508Z,2.38
2022-11-10T04:39:54.823Z,2.72
2022-11-10T04:42:21.163Z,2.65
2022-11-10T04:44:47.477Z,2.75
2022-11-10T04:47:13.918Z,2.40
2022-11-10T04:49:40.246Z,3.10
2022-11-10T04:52:06.566Z,2.60
2022-11-10T04:54:32.886Z,2.85
2022-11-10T04:56:59.201Z,3.08
2022-11-10T04:59:25.546Z,2.85
2022-11-10T05:01:51.852Z,3.03
2022-11-10T05:04:18.353Z,2.92
2022-11-10T05:06:44.735Z,3.15
2022-11-10T05:09:11.053Z,2.40
2022-11-10T05:11:37.557Z,2.85
2022-11-10T05:14:03.908Z,3.80
2022-11-10T05:16:30.272Z,2.88
2022-11-10T05:18:58.088Z,2.70
2022-11-10T05:21:24.400Z,3.10
2022-11-10T05:23:50.721Z,3.00
2022-11-10T05:26:18.201Z,3.10
2022-11-10T05:28:45.509Z,2.97
2022-11-10T05:31:12.292Z,2.90
2022-11-10T05:33:39.357Z,2.70
2022-11-10T05:36:06.563Z,2.50
2022-11-10T05:38:34.408Z,2.67
2022-11-10T05:41:02.969Z,2.75
2022-11-10T05:43:29.400Z,2.95
2022-11-10T05:45:55.770Z,2.80
2022-11-10T05:48:22.098Z,2.42
2022-11-10T05:50:50.859Z,2.85
2022-11-10T05:53:17.204Z,3.35
2022-11-10T05:55:43.564Z,3.15
2022-11-10T05:58:09.900Z,3.30
2022-11-10T06:00:36.534Z,4.15
2022-11-10T06:03:05.636Z,3.58
2022-11-10T06:05:35.275Z,3.40
2022-11-10T06:08:03.451Z,3.60
2022-11-10T06:10:30.225Z,3.67
2022-11-10T06:12:56.621Z,4.90
2022-11-10T06:15:23.420Z,4.20
2022-11-10T06:17:50.387Z,6.75
2022-11-10T06:20:17.547Z,6.32
2022-11-10T06:22:44.994Z,5.38
2022-11-10T06:25:11.632Z,5.85
2022-11-10T06:27:38.183Z,4.88
2022-11-10T06:30:04.922Z,4.20
2022-11-10T06:32:33.496Z,4.10
2022-11-10T06:35:00.789Z,4.10
2022-11-10T06:37:27.367Z,3.33
2022-11-10T06:39:53.873Z,3.05
2022-11-10T06:42:20.295Z,3.20
2022-11-10T06:44:46.624Z,3.40
2022-11-10T06:47:13.056Z,3.33
2022-11-10T06:49:39.370Z,3.42
2022-11-10T06:52:05.769Z,3.63
2022-11-10T06:54:32.245Z,3.65
2022-11-10T06:56:58.701Z,4.00
2022-11-10T06:59:25.094Z,3.53
2022-11-10T07:01:51.400Z,3.90
2022-11-10T07:04:20.355Z,5.00
2022-11-10T07:06:47.748Z,3.90
2022-11-10T07:09:14.598Z,4.60
2022-11-10T07:11:41.204Z,4.53
2022-11-10T07:14:07.567Z,4.93
2022-11-10T07:16:33.896Z,5.30
2022-11-10T07:19:00.474Z,5.00
2022-11-10T07:21:26.804Z,5.00
2022-11-10T07:23:53.194Z,5.32
2022-11-10T07:26:19.526Z,7.60
2022-11-10T07:28:46.201Z,9.18
2022-11-10T07:31:19.421Z,9.25
2022-11-10T07:33:51.915Z,8.93
2022-11-10T07:36:20.846Z,7.55
2022-11-10T07:38:47.228Z,6.65
2022-11-10T07:41:13.563Z,6.47
2022-11-10T07:43:39.900Z,6.40
2022-11-10T07:46:06.214Z,5.18
2022-11-10T07:48:32.560Z,5.70
2022-11-10T07:50:58.886Z,5.75
2022-11-10T07:53:25.488Z,5.57
2022-11-10T07:55:52.158Z,6.43
2022-11-10T07:58:18.872Z,6.05
2022-11-10T08:00:46.433Z,6.38
2022-11-10T08:03:15.260Z,5.88
2022-11-10T08:05:42.037Z,6.78
2022-11-10T08:08:08.930Z,6.25
2022-11-10T08:10:35.999Z,6.22
2022-11-10T08:13:05.057Z,7.03
2022-11-10T08:15:32.655Z,7.03
2022-11-10T08:18:00.852Z,7.82
2022-11-10T08:20:27.985Z,7.10
2022-11-10T08:23:02.138Z,7.03
2022-11-10T08:28:05.872Z,7.25
2022-11-10T08:30:33.682Z,8.82
2022-11-10T08:33:01.692Z,8.70
2022-11-10T08:35:29.770Z,7.50
2022-11-10T08:37:56.202Z,8.77
2022-11-10T08:40:24.177Z,9.35
2022-11-10T08:42:58.634Z,9.40
2022-11-10T08:45:25.318Z,9.00
2022-11-10T08:48:02.858Z,8.70
2022-11-10T08:50:29.921Z,9.35
2022-11-10T08:52:56.673Z,10.35
2022-11-10T08:55:23.033Z,9.98
2022-11-10T08:57:49.496Z,9.23
2022-11-10T09:00:17.329Z,10.00
2022-11-10T09:02:45.763Z,10.70
2022-11-10T09:05:12.081Z,9.32
2022-11-10T09:07:46.010Z,8.88
2022-11-10T09:10:13.287Z,8.80
2022-11-10T09:12:41.101Z,9.32
2022-11-10T09:15:08.555Z,9.77
2022-11-10T09:17:35.603Z,9.50
2022-11-10T09:20:02.139Z,10.02
2022-11-10T09:22:29.090Z,9.35
2022-11-10T09:24:55.429Z,8.90
2022-11-10T09:27:21.737Z,8.23
2022-11-10T09:29:48.105Z,9.73
2022-11-10T09:32:14.587Z,9.70
2022-11-10T09:34:40.982Z,8.35
2022-11-10T09:37:07.289Z,8.65
2022-11-10T09:39:33.629Z,7.22
2022-11-10T09:41:59.989Z,7.05
2022-11-10T09:44:39.691Z,5.57
2022-11-10T09:47:42.224Z,5.65
2022-11-10T09:50:06.113Z,5.60
2022-11-10T09:52:35.234Z,5.20
2022-11-10T09:55:20.334Z,4.60
2022-11-10T09:57:49.089Z,4.90
2022-11-10T10:00:18.056Z,5.25
2022-11-10T10:02:52.215Z,5.10
2022-11-10T10:08:31.880Z,4.18
2022-11-10T10:11:19.034Z,4.82
2022-11-10T10:13:54.424Z,5.10
2022-11-10T10:16:43.679Z,4.35
2022-11-10T10:19:14.433Z,3.85
2022-11-10T10:21:50.399Z,4.35
2022-11-10T10:24:22.050Z,4.20
2022-11-10T10:26:56.574Z,4.32
2022-11-10T10:29:30.848Z,4.47
2022-11-10T10:32:01.045Z,5.13
2022-11-10T10:34:30.369Z,3.92
2022-11-10T10:36:56.829Z,4.72
2022-11-10T10:39:38.813Z,5.18
2022-11-10T10:42:16.213Z,5.53
2022-11-10T10:45:11.746Z,5.43
2022-11-10T10:47:38.767Z,5.10
2022-11-10T10:50:23.928Z,4.65
2022-11-10T10:53:16.559Z,4.15
2022-11-10T10:56:05.141Z,3.90
2022-11-10T10:58:34.313Z,4.38
2022-11-10T11:01:16.001Z,4.22
2022-11-10T11:03:50.397Z,4.63
2022-11-10T11:06:19.382Z,4.90
2022-11-10T11:09:02.049Z,4.03
2022-11-10T11:11:33.509Z,4.40
2022-11-10T11:14:24.949Z,4.55
2022-11-10T11:16:56.533Z,4.68
2022-11-10T11:19:25.393Z,3.70
2022-11-10T11:21:55.728Z,4.40
2022-11-10T11:24:42.929Z,4.20
2022-11-10T11:27:20.473Z,4.07
2022-11-10T11:30:14.477Z,4.00
2022-11-10T11:33:10.351Z,4.13
2022-11-10T11:36:03.293Z,3.90
2022-11-10T11:38:41.203Z,3.53
2022-11-10T11:41:33.553Z,4.03
2022-11-10T11:44:27.995Z,4.05
2022-11-10T11:47:12.924Z,4.45
2022-11-10T11:49:54.488Z,3.92
2022-11-10T11:52:45.006Z,3.63
2022-11-10T11:55:23.559Z,3.33
2022-11-10T11:58:13.921Z,3.47
2022-11-10T12:00:48.455Z,3.25
2022-11-10T12:03:29.972Z,3.47
2022-11-10T12:06:14.926Z,3.15
2022-11-10T12:08:55.620Z,3.00
2022-11-10T12:11:28.080Z,3.90
2022-11-10T12:14:05.106Z,3.13
2022-11-10T12:16:33.527Z,3.58
2022-11-10T12:19:26.457Z,3.15
2022-11-10T12:22:21.006Z,3.15
2022-11-10T12:24:56.030Z,3.05
2022-11-10T12:27:27.184Z,2.90
2022-11-10T12:29:56.957Z,3.00
2022-11-10T12:32:32.150Z,2.90
2022-11-10T12:35:02.221Z,3.80
2022-11-10T12:37:33.188Z,3.47
2022-11-10T12:40:11.187Z,3.00
2022-11-10T12:42:38.305Z,2.47
2022-11-10T12:45:17.665Z,3.28
2022-11-10T12:47:45.572Z,3.45
2022-11-10T12:50:24.772Z,2.95
2022-11-10T12:53:01.230Z,3.10
2022-11-10T12:55:35.968Z,3.00
2022-11-10T12:58:04.633Z,2.60
2022-11-10T13:00:39.869Z,3.03
2022-11-10T13:03:13.826Z,3.25
2022-11-10T13:05:42.117Z,2.38
2022-11-10T13:08:18.568Z,2.83
2022-11-10T13:10:52.935Z,2.45
2022-11-10T13:13:19.435Z,2.88
2022-11-10T13:15:51.153Z,2.40
2022-11-10T13:18:30.307Z,2.50
2022-11-10T13:20:57.193Z,2.38
2022-11-10T13:23:31.923Z,2.47
2022-11-10T13:26:00.840Z,2.53
2022-11-10T13:28:48.708Z,2.28
2022-11-10T13:31:27.228Z,3.17
2022-11-10T13:34:22.765Z,2.35
2022-11-10T13:36:49.735Z,2.53
2022-11-10T13:39:18.906Z,2.53
2022-11-10T13:42:08.571Z,2.55
2022-11-10T13:44:39.617Z,2.58
2022-11-10T13:47:08.829Z,2.28
2022-11-10T13:50:01.857Z,2.85
2022-11-10T13:53:05.429Z,2.70
2022-11-10T13:55:52.838Z,3.33
2022-11-10T13:58:45.650Z,5.05
2022-11-10T14:01:14.762Z,3.72
2022-11-10T14:03:47.828Z,2.85
2022-11-10T14:06:24.301Z,3.72
2022-11-10T14:09:22.947Z,3.10
2022-11-10T14:11:53.936Z,3.28
2022-11-10T14:14:51.867Z,2.63
2022-11-10T14:17:27.945Z,3.05
2022-11-10T14:19:54.355Z,2.50
2022-11-10T14:22:42.089Z,3.80
2022-11-10T14:25:36.122Z,3.30
2022-11-10T14:28:03.358Z,3.20
2022-11-10T14:30:33.233Z,2.67
2022-11-10T14:33:04.125Z,3.45
2022-11-10T14:35:33.373Z,3.75
2022-11-10T14:38:05.403Z,3.75
2022-11-10T14:40:31.852Z,3.70
2022-11-10T14:42:59.704Z,4.22
2022-11-10T14:45:27.785Z,3.70
2022-11-10T14:47:56.498Z,4.15
2022-11-10T14:50:25.293Z,4.28
2022-11-10T14:53:03.309Z,4.13
2022-11-10T14:55:31.539Z,4.43
2022-11-10T14:58:10.045Z,4.50
2022-11-10T15:00:38.306Z,4.88
2022-11-10T15:03:06.173Z,5.25
2022-11-10T15:05:32.653Z,5.03
2022-11-10T15:07:59.640Z,5.25
2022-11-10T15:10:44.717Z,5.63
2022-11-10T15:13:15.990Z,6.35
2022-11-10T15:15:42.316Z,5.13
2022-11-10T15:18:29.640Z,5.18
2022-11-10T15:21:01.456Z,5.25
2022-11-10T15:23:33.825Z,5.40
2022-11-10T15:26:00.349Z,5.03
2022-11-10T15:28:29.866Z,5.90
2022-11-10T15:31:11.077Z,5.65
2022-11-10T15:33:38.549Z,5.00
2022-11-10T15:36:39.341Z,4.90
2022-11-10T15:39:11.743Z,4.80
2022-11-10T15:41:43.114Z,4.80
2022-11-10T15:44:24.128Z,4.70
2022-11-10T15:46:57.892Z,4.80
2022-11-10T15:49:26.446Z,4.68
2022-11-10T15:51:56.721Z,4.53
2022-11-10T15:54:24.865Z,4.55
2022-11-10T15:56:51.252Z,6.70
2022-11-10T15:59:17.593Z,6.68
2022-11-10T16:01:44.102Z,6.22
2022-11-10T16:04:10.979Z,6.22
2022-11-10T16:06:39.881Z,4.22
2022-11-10T16:09:06.748Z,5.03
2022-11-10T16:11:35.472Z,6.32
2022-11-10T16:14:03.665Z,7.43
2022-11-10T16:16:31.057Z,6.18
2022-11-10T16:18:57.522Z,9.63
2022-11-10T16:21:25.672Z,8.63
2022-11-10T16:23:52.692Z,8.02
2022-11-10T16:26:21.497Z,8.82
2022-11-10T16:28:48.284Z,8.90
2022-11-10T16:31:16.544Z,6.60
2022-11-10T16:33:42.919Z,5.57
2022-11-10T16:36:24.828Z,5.15
2022-11-10T16:38:51.454Z,5.82
2022-11-10T16:41:17.794Z,5.85
2022-11-10T16:43:44.120Z,5.28
2022-11-10T16:46:26.129Z,5.60
2022-11-10T16:48:55.163Z,5.65
2022-11-10T16:51:47.247Z,5.53
2022-11-10T16:54:14.840Z,6.43
2022-11-10T16:56:41.940Z,5.68
2022-11-10T16:59:09.412Z,5.72
2022-11-10T17:01:36.744Z,5.60
2022-11-10T17:04:10.656Z,5.82
2022-11-10T17:06:37.054Z,5.82
2022-11-10T17:09:08.927Z,5.32
2022-11-10T17:11:35.254Z,5.28
2022-11-10T17:14:01.612Z,5.63
2022-11-10T17:16:33.985Z,6.38
2022-11-10T17:19:01.383Z,5.28
2022-11-10T17:21:32.651Z,5.45
2022-11-10T17:23:59.861Z,5.03
2022-11-10T17:26:26.455Z,4.88
2022-11-10T17:28:53.377Z,4.50
2022-11-10T17:31:19.705Z,5.55
2022-11-10T17:33:46.048Z,5.78
2022-11-10T17:36:19.072Z,5.60
2022-11-10T17:38:45.949Z,5.07
2022-11-10T17:41:17.208Z,6.30
2022-11-10T17:43:45.872Z,6.07
2022-11-10T17:46:13.608Z,5.32
2022-11-10T17:48:40.233Z,5.50
2022-11-10T17:51:13.678Z,5.95
2022-11-10T17:53:40.141Z,5.95
2022-11-10T17:56:06.753Z,5.57
2022-11-10T17:58:33.161Z,5.97
2022-11-10T18:00:59.791Z,5.68
2022-11-10T18:03:26.335Z,5.80
2022-11-10T18:05:52.718Z,4.70
2022-11-10T18:08:19.328Z,6.57
2022-11-10T18:10:51.181Z,6.43
2022-11-10T18:13:20.033Z,6.63
2022-11-10T18:15:47.447Z,5.93
2022-11-10T18:18:15.276Z,5.38
2022-11-10T18:20:42.186Z,5.18
2022-11-10T18:23:11.372Z,6.68
2022-11-10T18:25:41.353Z,6.45
2022-11-10T18:28:08.654Z,6.75
2022-11-10T18:30:35.623Z,6.28
2022-11-10T18:33:03.043Z,7.63
2022-11-10T18:35:29.422Z,7.15
2022-11-10T18:37:55.809Z,6.38
2022-11-10T18:40:22.153Z,10.32
2022-11-10T18:42:48.660Z,18.50
2022-11-10T18:45:15.033Z,34.08
2022-11-10T18:47:41.421Z,26.38
2022-11-10T18:50:08.652Z,20.00
2022-11-10T18:52:34.991Z,17.08
2022-11-10T18:55:01.322Z,17.52
2022-11-10T18:57:27.626Z,17.75
2022-11-10T18:59:54.166Z,16.58
2022-11-10T19:02:20.500Z,13.27
2022-11-10T19:04:49.668Z,12.48
2022-11-10T19:07:19.757Z,14.40
2022-11-10T19:09:46.274Z,13.15
2022-11-10T19:12:12.902Z,12.55
2022-11-10T19:14:40.658Z,12.07
2022-11-10T19:17:06.981Z,13.02
2022-11-10T19:19:33.352Z,12.00
2022-11-10T19:22:00.591Z,11.73
2022-11-10T19:24:28.957Z,11.20
2022-11-10T19:26:56.613Z,11.38
2022-11-10T19:29:22.919Z,12.10
2022-11-10T19:31:52.886Z,11.45
2022-11-10T19:34:19.391Z,11.32
2022-11-10T19:36:46.722Z,10.18
2022-11-10T19:39:13.097Z,11.50
2022-11-10T19:41:39.507Z,10.70
2022-11-10T19:44:06.653Z,10.10
2022-11-10T19:46:36.541Z,10.00
2022-11-10T19:49:04.170Z,9.85
2022-11-10T19:51:31.913Z,10.43
2022-11-10T19:54:03.006Z,10.32
2022-11-10T19:56:32.047Z,11.13
2022-11-10T19:58:59.344Z,11.00
2022-11-10T20:01:26.497Z,12.15
2022-11-10T20:03:53.116Z,11.98
2022-11-10T20:06:21.238Z,11.60
2022-11-10T20:08:48.456Z,11.18
2022-11-10T20:11:17.238Z,10.93
2022-11-10T20:13:45.141Z,12.43
2022-11-10T20:16:13.925Z,11.45
2022-11-10T20:18:40.775Z,12.90
2022-11-10T20:21:12.434Z,12.80
2022-11-10T20:23:38.931Z,12.38
2022-11-10T20:26:16.366Z,13.48
2022-11-10T20:28:43.473Z,13.43
2022-11-10T20:31:30.367Z,12.05
2022-11-10T20:33:56.909Z,10.98
2022-11-10T20:36:30.086Z,11.70
2022-11-10T20:38:57.747Z,13.40
2022-11-10T20:41:27.272Z,11.32
2022-11-10T20:43:54.864Z,12.35
2022-11-10T20:46:48.069Z,12.02
2022-11-10T20:49:08.751Z,12.63
2022-11-10T20:51:35.203Z,13.45
2022-11-10T20:54:02.005Z,14.23
2022-11-10T20:56:29.979Z,12.73
2022-11-10T20:58:57.691Z,14.25
2022-11-10T21:01:25.213Z,13.65
2022-11-10T21:03:51.985Z,13.20
2022-11-10T21:06:18.378Z,12.43
2022-11-10T21:08:55.359Z,11.73
2022-11-10T21:11:40.366Z,12.00
2022-11-10T21:14:06.982Z,12.48
2022-11-10T21:16:33.538Z,12.23
2022-11-10T21:19:00.667Z,11.77
2022-11-10T21:21:33.845Z,12.00
2022-11-10T21:24:01.646Z,11.80
2022-11-10T21:26:28.089Z,11.73
2022-11-10T21:28:54.488Z,11.93
2022-11-10T21:31:21.405Z,11.32
2022-11-10T21:33:47.972Z,11.88
2022-11-10T21:36:14.356Z,11.75
2022-11-10T21:38:40.774Z,11.20
2022-11-10T21:41:07.410Z,10.55
2022-11-10T21:43:34.243Z,11.80
2022-11-10T21:46:06.817Z,12.77
2022-11-10T21:48:33.874Z,12.57
2022-11-10T21:51:01.467Z,13.13
2022-11-10T21:53:28.367Z,12.57
2022-11-10T21:56:03.231Z,12.52
2022-11-10T21:58:29.614Z,13.57
2022-11-10T22:01:02.994Z,13.02
2022-11-10T22:03:30.058Z,12.80
2022-11-10T22:06:02.917Z,11.65
2022-11-10T22:08:29.306Z,12.85
2022-11-10T22:11:14.325Z,11.80
2022-11-10T22:13:59.189Z,12.23
2022-11-10T22:16:51.379Z,13.68
2022-11-10T22:19:18.189Z,11.40
2022-11-10T22:21:44.704Z,12.73
2022-11-10T22:24:22.883Z,12.43
2022-11-10T22:26:50.437Z,11.60
2022-11-10T22:29:16.760Z,11.43
2022-11-10T22:31:43.149Z,12.95
2022-11-10T22:34:09.480Z,11.25
2022-11-10T22:36:35.921Z,11.95
2022-11-10T22:39:03.934Z,13.27
2022-11-10T22:41:48.747Z,13.30
2022-11-10T22:44:15.106Z,13.88
2022-11-10T22:46:45.588Z,15.60
2022-11-10T22:49:16.150Z,15.68
2022-11-10T22:51:44.278Z,13.90
2022-11-10T22:54:12.652Z,14.60
2022-11-10T22:56:39.349Z,13.98
2022-11-10T22:59:05.813Z,15.50
2022-11-10T23:01:32.815Z,14.65
2022-11-10T23:04:00.048Z,13.65
2022-11-10T23:06:26.808Z,13.98
2022-11-10T23:08:53.548Z,14.00
2022-11-10T23:11:22.782Z,14.63
2022-11-10T23:13:50.462Z,15.20
2022-11-10T23:16:27.677Z,14.13
2022-11-10T23:18:55.400Z,13.55
2022-11-10T23:21:24.070Z,11.43
2022-11-10T23:23:51.046Z,13.10
2022-11-10T23:26:22.510Z,13.10
2022-11-10T23:28:49.180Z,14.77
2022-11-10T23:31:20.960Z,13.75
2022-11-10T23:33:48.502Z,13.30
2022-11-10T23:36:18.717Z,13.93
2022-11-10T23:38:45.560Z,14.18
2022-11-10T23:41:16.793Z,13.48
2022-11-10T23:43:43.299Z,12.07
2022-11-10T23:46:10.436Z,12.65
2022-11-10T23:48:37.414Z,13.32
2022-11-10T23:51:04.564Z,12.43
2022-11-10T23:53:31.130Z,14.27
2022-11-10T23:55:59.168Z,13.93
2022-11-10T23:58:25.629Z,13.00
